sensor_id;sensor_type;location;lat;lon;timestamp;temperature;humidity
39401;DHT22;54391;50.000;7.360;2023-02-28T00:01:31;-2.00;9.80
39401;DHT22;54391;50.000;7.360;2023-02-28T00:03:58;-2.00;10.20
39401;DHT22;54391;50.000;7.360;2023-02-28T00:06:27;-2.00;10.20
39401;DHT22;54391;50.000;7.360;2023-02-28T00:08:54;-2.10;10.20
39401;DHT22;54391;50.000;7.360;2023-02-28T00:11:21;-1.70;9.60
39401;DHT22;54391;50.000;7.360;2023-02-28T00:13:48;-2.10;9.80
39401;DHT22;54391;50.000;7.360;2023-02-28T00:16:17;-2.10;10.20
39401;DHT22;54391;50.000;7.360;2023-02-28T00:18:45;-2.00;10.20
39401;DHT22;54391;50.000;7.360;2023-02-28T00:21:13;-2.20;10.40
39401;DHT22;54391;50.000;7.360;2023-02-28T00:23:40;-2.20;10.00
39401;DHT22;54391;50.000;7.360;2023-02-28T00:26:07;-2.20;10.40
39401;DHT22;54391;50.000;7.360;2023-02-28T00:28:36;-2.20;10.90
39401;DHT22;54391;50.000;7.360;2023-02-28T00:31:03;-2.20;10.30
39401;DHT22;54391;50.000;7.360;2023-02-28T00:33:32;-2.30;10.30
39401;DHT22;54391;50.000;7.360;2023-02-28T00:36:06;-2.30;10.60
39401;DHT22;54391;50.000;7.360;2023-02-28T00:38:35;-2.30;11.10
39401;DHT22;54391;50.000;7.360;2023-02-28T00:41:02;-2.30;10.40
39401;DHT22;54391;50.000;7.360;2023-02-28T00:43:31;-2.30;9.80
39401;DHT22;54391;50.000;7.360;2023-02-28T00:45:58;-2.30;10.00
39401;DHT22;54391;50.000;7.360;2023-02-28T00:48:25;-2.40;10.20
39401;DHT22;54391;50.000;7.360;2023-02-28T00:50:53;-2.40;10.10
39401;DHT22;54391;50.000;7.360;2023-02-28T00:53:20;-2.40;9.70
39401;DHT22;54391;50.000;7.360;2023-02-28T00:55:48;-2.30;9.80
39401;DHT22;54391;50.000;7.360;2023-02-28T00:58:14;-2.30;9.90
39401;DHT22;54391;50.000;7.360;2023-02-28T01:00:42;-2.40;9.80
39401;DHT22;54391;50.000;7.360;2023-02-28T01:03:10;-2.50;9.60
39401;DHT22;54391;50.000;7.360;2023-02-28T01:05:37;-2.40;10.00
39401;DHT22;54391;50.000;7.360;2023-02-28T01:08:08;-2.40;9.80
39401;DHT22;54391;50.000;7.360;2023-02-28T01:10:35;-2.40;9.70
39401;DHT22;54391;50.000;7.360;2023-02-28T01:13:04;-2.50;9.70
39401;DHT22;54391;50.000;7.360;2023-02-28T01:15:31;-2.50;10.30
39401;DHT22;54391;50.000;7.360;2023-02-28T01:17:58;-2.40;10.10
39401;DHT22;54391;50.000;7.360;2023-02-28T01:20:25;-2.30;10.40
39401;DHT22;54391;50.000;7.360;2023-02-28T01:22:52;-2.30;9.60
39401;DHT22;54391;50.000;7.360;2023-02-28T01:25:21;-2.20;9.90
39401;DHT22;54391;50.000;7.360;2023-02-28T01:27:48;-2.20;9.70
39401;DHT22;54391;50.000;7.360;2023-02-28T01:30:15;-2.20;9.90
39401;DHT22;54391;50.000;7.360;2023-02-28T01:32:42;-2.30;9.90
39401;DHT22;54391;50.000;7.360;2023-02-28T01:35:09;-2.30;10.60
39401;DHT22;54391;50.000;7.360;2023-02-28T01:37:36;-2.30;11.20
39401;DHT22;54391;50.000;7.360;2023-02-28T01:40:04;-2.20;11.40
39401;DHT22;54391;50.000;7.360;2023-02-28T01:42:33;-2.20;12.70
39401;DHT22;54391;50.000;7.360;2023-02-28T01:45:01;-2.30;13.40
39401;DHT22;54391;50.000;7.360;2023-02-28T01:47:30;-2.20;14.10
39401;DHT22;54391;50.000;7.360;2023-02-28T01:49:58;-2.20;14.90
39401;DHT22;54391;50.000;7.360;2023-02-28T01:52:25;-2.20;15.40
39401;DHT22;54391;50.000;7.360;2023-02-28T01:54:53;-2.30;16.10
39401;DHT22;54391;50.000;7.360;2023-02-28T01:57:22;-2.30;16.80
39401;DHT22;54391;50.000;7.360;2023-02-28T01:59:53;-2.20;17.00
39401;DHT22;54391;50.000;7.360;2023-02-28T02:02:21;-2.40;17.40
39401;DHT22;54391;50.000;7.360;2023-02-28T02:04:50;-2.40;18.60
39401;DHT22;54391;50.000;7.360;2023-02-28T02:07:18;-2.40;18.30
39401;DHT22;54391;50.000;7.360;2023-02-28T02:09:45;-2.40;18.80
39401;DHT22;54391;50.000;7.360;2023-02-28T02:12:15;-2.40;19.60
39401;DHT22;54391;50.000;7.360;2023-02-28T02:14:50;-2.50;20.70
39401;DHT22;54391;50.000;7.360;2023-02-28T02:17:23;-2.30;20.80
39401;DHT22;54391;50.000;7.360;2023-02-28T02:22:37;-2.40;21.30
39401;DHT22;54391;50.000;7.360;2023-02-28T02:25:11;-2.40;22.20
39401;DHT22;54391;50.000;7.360;2023-02-28T02:27:45;-2.40;22.70
39401;DHT22;54391;50.000;7.360;2023-02-28T02:30:18;-2.50;23.60
39401;DHT22;54391;50.000;7.360;2023-02-28T02:35:33;-2.50;25.20
39401;DHT22;54391;50.000;7.360;2023-02-28T02:38:03;-2.50;25.50
39401;DHT22;54391;50.000;7.360;2023-02-28T02:40:35;-2.50;25.90
39401;DHT22;54391;50.000;7.360;2023-02-28T02:43:06;-2.70;26.40
39401;DHT22;54391;50.000;7.360;2023-02-28T02:45:34;-2.60;27.50
39401;DHT22;54391;50.000;7.360;2023-02-28T02:48:06;-2.60;27.50
39401;DHT22;54391;50.000;7.360;2023-02-28T02:50:38;-2.60;27.80
39401;DHT22;54391;50.000;7.360;2023-02-28T02:53:06;-2.60;27.60
39401;DHT22;54391;50.000;7.360;2023-02-28T02:55:34;-2.60;28.40
39401;DHT22;54391;50.000;7.360;2023-02-28T02:58:03;-2.60;28.80
39401;DHT22;54391;50.000;7.360;2023-02-28T03:00:33;-2.70;29.20
39401;DHT22;54391;50.000;7.360;2023-02-28T03:03:02;-2.70;29.60
39401;DHT22;54391;50.000;7.360;2023-02-28T03:05:30;-2.70;32.10
39401;DHT22;54391;50.000;7.360;2023-02-28T03:08:01;-2.80;30.30
39401;DHT22;54391;50.000;7.360;2023-02-28T03:10:32;-2.70;30.70
39401;DHT22;54391;50.000;7.360;2023-02-28T03:13:10;-2.70;30.60
39401;DHT22;54391;50.000;7.360;2023-02-28T03:15:40;-2.70;31.50
39401;DHT22;54391;50.000;7.360;2023-02-28T03:18:10;-2.80;32.10
39401;DHT22;54391;50.000;7.360;2023-02-28T03:20:44;-2.80;32.80
39401;DHT22;54391;50.000;7.360;2023-02-28T03:23:16;-2.80;32.80
39401;DHT22;54391;50.000;7.360;2023-02-28T03:25:49;-2.90;33.70
39401;DHT22;54391;50.000;7.360;2023-02-28T03:28:26;-2.90;34.00
39401;DHT22;54391;50.000;7.360;2023-02-28T03:30:56;-2.80;33.50
39401;DHT22;54391;50.000;7.360;2023-02-28T03:33:26;-3.00;35.00
39401;DHT22;54391;50.000;7.360;2023-02-28T03:35:54;-2.90;35.00
39401;DHT22;54391;50.000;7.360;2023-02-28T03:38:24;-2.90;34.30
39401;DHT22;54391;50.000;7.360;2023-02-28T03:40:55;-3.00;35.00
39401;DHT22;54391;50.000;7.360;2023-02-28T03:43:25;-3.10;35.60
39401;DHT22;54391;50.000;7.360;2023-02-28T03:45:54;-3.00;35.60
39401;DHT22;54391;50.000;7.360;2023-02-28T03:48:23;-2.90;34.50
39401;DHT22;54391;50.000;7.360;2023-02-28T03:50:52;-2.90;34.00
39401;DHT22;54391;50.000;7.360;2023-02-28T03:53:21;-2.90;33.40
39401;DHT22;54391;50.000;7.360;2023-02-28T03:55:51;-2.90;33.70
39401;DHT22;54391;50.000;7.360;2023-02-28T03:58:21;-2.90;34.30
39401;DHT22;54391;50.000;7.360;2023-02-28T04:00:51;-3.10;35.30
39401;DHT22;54391;50.000;7.360;2023-02-28T04:03:19;-3.20;35.90
39401;DHT22;54391;50.000;7.360;2023-02-28T04:05:48;-3.00;36.00
39401;DHT22;54391;50.000;7.360;2023-02-28T04:08:15;-3.20;36.00
39401;DHT22;54391;50.000;7.360;2023-02-28T04:10:42;-3.20;36.20
39401;DHT22;54391;50.000;7.360;2023-02-28T04:13:11;-3.20;36.30
39401;DHT22;54391;50.000;7.360;2023-02-28T04:15:38;-3.20;36.10
39401;DHT22;54391;50.000;7.360;2023-02-28T04:18:06;-3.20;37.50
39401;DHT22;54391;50.000;7.360;2023-02-28T04:20:33;-3.30;37.10
39401;DHT22;54391;50.000;7.360;2023-02-28T04:23:00;-3.30;36.00
39401;DHT22;54391;50.000;7.360;2023-02-28T04:25:27;-3.30;36.60
39401;DHT22;54391;50.000;7.360;2023-02-28T04:27:54;-3.30;37.20
39401;DHT22;54391;50.000;7.360;2023-02-28T04:30:23;-3.30;36.30
39401;DHT22;54391;50.000;7.360;2023-02-28T04:32:50;-3.30;36.20
39401;DHT22;54391;50.000;7.360;2023-02-28T04:35:17;-3.20;36.30
39401;DHT22;54391;50.000;7.360;2023-02-28T04:37:44;-3.30;36.40
39401;DHT22;54391;50.000;7.360;2023-02-28T04:40:11;-3.30;36.10
39401;DHT22;54391;50.000;7.360;2023-02-28T04:42:38;-3.40;35.20
39401;DHT22;54391;50.000;7.360;2023-02-28T04:45:05;-3.40;35.90
39401;DHT22;54391;50.000;7.360;2023-02-28T04:47:37;-3.40;36.00
39401;DHT22;54391;50.000;7.360;2023-02-28T04:50:04;-3.40;34.90
39401;DHT22;54391;50.000;7.360;2023-02-28T04:52:31;-3.30;34.60
39401;DHT22;54391;50.000;7.360;2023-02-28T04:54:58;-3.40;34.60
39401;DHT22;54391;50.000;7.360;2023-02-28T04:57:27;-3.50;35.30
39401;DHT22;54391;50.000;7.360;2023-02-28T04:59:55;-3.40;35.60
39401;DHT22;54391;50.000;7.360;2023-02-28T05:02:22;-3.50;33.70
39401;DHT22;54391;50.000;7.360;2023-02-28T05:04:51;-3.50;33.80
39401;DHT22;54391;50.000;7.360;2023-02-28T05:07:18;-3.50;33.80
39401;DHT22;54391;50.000;7.360;2023-02-28T05:09:45;-1.50;34.10
39401;DHT22;54391;50.000;7.360;2023-02-28T05:12:12;-3.40;32.20
39401;DHT22;54391;50.000;7.360;2023-02-28T05:14:39;-3.40;32.60
39401;DHT22;54391;50.000;7.360;2023-02-28T05:17:06;-3.40;31.90
39401;DHT22;54391;50.000;7.360;2023-02-28T05:19:33;-3.60;31.80
39401;DHT22;54391;50.000;7.360;2023-02-28T05:22:01;-3.70;32.20
39401;DHT22;54391;50.000;7.360;2023-02-28T05:24:29;-3.60;32.10
39401;DHT22;54391;50.000;7.360;2023-02-28T05:26:56;-3.70;32.70
39401;DHT22;54391;50.000;7.360;2023-02-28T05:29:23;-3.60;32.60
39401;DHT22;54391;50.000;7.360;2023-02-28T05:31:50;-3.50;30.30
39401;DHT22;54391;50.000;7.360;2023-02-28T05:34:17;-3.60;30.80
39401;DHT22;54391;50.000;7.360;2023-02-28T05:36:44;-3.60;31.80
39401;DHT22;54391;50.000;7.360;2023-02-28T05:39:12;-3.60;31.20
39401;DHT22;54391;50.000;7.360;2023-02-28T05:41:40;-3.60;31.20
39401;DHT22;54391;50.000;7.360;2023-02-28T05:44:07;-3.60;31.70
39401;DHT22;54391;50.000;7.360;2023-02-28T05:46:34;-3.70;32.20
39401;DHT22;54391;50.000;7.360;2023-02-28T05:49:01;-3.70;32.50
39401;DHT22;54391;50.000;7.360;2023-02-28T05:51:28;-3.80;32.20
39401;DHT22;54391;50.000;7.360;2023-02-28T05:53:58;-3.80;32.70
39401;DHT22;54391;50.000;7.360;2023-02-28T05:56:26;-3.80;33.10
39401;DHT22;54391;50.000;7.360;2023-02-28T05:58:53;-3.90;33.60
39401;DHT22;54391;50.000;7.360;2023-02-28T06:03:48;-3.80;32.80
39401;DHT22;54391;50.000;7.360;2023-02-28T06:06:15;-3.90;32.80
39401;DHT22;54391;50.000;7.360;2023-02-28T06:08:42;-3.80;33.70
39401;DHT22;54391;50.000;7.360;2023-02-28T06:11:11;-3.70;33.00
39401;DHT22;54391;50.000;7.360;2023-02-28T06:13:39;-3.80;31.40
39401;DHT22;54391;50.000;7.360;2023-02-28T06:16:07;-3.90;32.90
39401;DHT22;54391;50.000;7.360;2023-02-28T06:18:35;-3.80;33.70
39401;DHT22;54391;50.000;7.360;2023-02-28T06:21:02;-3.80;32.70
39401;DHT22;54391;50.000;7.360;2023-02-28T06:23:29;-3.90;32.70
39401;DHT22;54391;50.000;7.360;2023-02-28T06:25:56;-3.80;32.80
39401;DHT22;54391;50.000;7.360;2023-02-28T06:28:24;-3.70;32.70
39401;DHT22;54391;50.000;7.360;2023-02-28T06:30:52;-3.80;33.00
39401;DHT22;54391;50.000;7.360;2023-02-28T06:33:19;-3.80;32.10
39401;DHT22;54391;50.000;7.360;2023-02-28T06:35:46;-3.80;32.10
39401;DHT22;54391;50.000;7.360;2023-02-28T06:38:14;-3.70;31.80
39401;DHT22;54391;50.000;7.360;2023-02-28T06:40:41;-3.80;31.50
39401;DHT22;54391;50.000;7.360;2023-02-28T06:43:09;-3.70;30.90
39401;DHT22;54391;50.000;7.360;2023-02-28T06:45:41;-3.70;31.00
39401;DHT22;54391;50.000;7.360;2023-02-28T06:48:09;-3.40;31.00
39401;DHT22;54391;50.000;7.360;2023-02-28T06:50:36;-3.30;29.40
39401;DHT22;54391;50.000;7.360;2023-02-28T06:53:03;-3.00;26.70
39401;DHT22;54391;50.000;7.360;2023-02-28T06:55:31;-2.60;26.10
39401;DHT22;54391;50.000;7.360;2023-02-28T06:57:58;-2.60;24.00
39401;DHT22;54391;50.000;7.360;2023-02-28T07:00:25;-2.60;23.50
39401;DHT22;54391;50.000;7.360;2023-02-28T07:02:52;-2.30;22.50
39401;DHT22;54391;50.000;7.360;2023-02-28T07:05:22;-2.00;20.70
39401;DHT22;54391;50.000;7.360;2023-02-28T07:07:49;-1.50;20.40
39401;DHT22;54391;50.000;7.360;2023-02-28T07:10:17;-1.50;17.20
39401;DHT22;54391;50.000;7.360;2023-02-28T07:12:45;-0.50;15.00
39401;DHT22;54391;50.000;7.360;2023-02-28T07:15:12;-0.30;12.50
39401;DHT22;54391;50.000;7.360;2023-02-28T07:17:39;0.30;10.20
39401;DHT22;54391;50.000;7.360;2023-02-28T07:20:07;0.20;10.30
39401;DHT22;54391;50.000;7.360;2023-02-28T07:22:35;-0.60;12.00
39401;DHT22;54391;50.000;7.360;2023-02-28T07:25:02;-0.70;12.30
39401;DHT22;54391;50.000;7.360;2023-02-28T07:27:29;-1.30;14.10
39401;DHT22;54391;50.000;7.360;2023-02-28T07:29:56;-1.70;14.80
39401;DHT22;54391;50.000;7.360;2023-02-28T07:32:27;-1.70;15.90
39401;DHT22;54391;50.000;7.360;2023-02-28T07:34:54;-1.80;16.10
39401;DHT22;54391;50.000;7.360;2023-02-28T07:37:21;-2.00;16.30
39401;DHT22;54391;50.000;7.360;2023-02-28T07:39:50;-2.10;17.70
39401;DHT22;54391;50.000;7.360;2023-02-28T07:42:17;-2.00;16.40
39401;DHT22;54391;50.000;7.360;2023-02-28T07:44:44;-2.00;17.00
39401;DHT22;54391;50.000;7.360;2023-02-28T07:47:11;-2.10;18.10
39401;DHT22;54391;50.000;7.360;2023-02-28T07:49:38;-2.30;18.40
39401;DHT22;54391;50.000;7.360;2023-02-28T07:52:05;-2.10;16.90
39401;DHT22;54391;50.000;7.360;2023-02-28T07:54:33;-2.10;17.40
39401;DHT22;54391;50.000;7.360;2023-02-28T07:57:01;-2.10;17.60
39401;DHT22;54391;50.000;7.360;2023-02-28T07:59:28;-2.10;17.90
39401;DHT22;54391;50.000;7.360;2023-02-28T08:01:56;-2.00;16.60
39401;DHT22;54391;50.000;7.360;2023-02-28T08:04:24;-2.00;16.60
39401;DHT22;54391;50.000;7.360;2023-02-28T08:06:51;-2.00;17.30
39401;DHT22;54391;50.000;7.360;2023-02-28T08:09:18;-1.90;16.80
39401;DHT22;54391;50.000;7.360;2023-02-28T08:11:45;-1.80;15.70
39401;DHT22;54391;50.000;7.360;2023-02-28T08:14:14;-1.80;16.10
39401;DHT22;54391;50.000;7.360;2023-02-28T08:16:41;-1.70;15.00
39401;DHT22;54391;50.000;7.360;2023-02-28T08:19:08;-1.90;16.40
39401;DHT22;54391;50.000;7.360;2023-02-28T08:21:35;-1.30;14.00
39401;DHT22;54391;50.000;7.360;2023-02-28T08:24:02;-1.30;14.30
39401;DHT22;54391;50.000;7.360;2023-02-28T08:26:29;-1.10;11.60
39401;DHT22;54391;50.000;7.360;2023-02-28T08:28:56;-1.00;12.10
39401;DHT22;54391;50.000;7.360;2023-02-28T08:31:24;-0.80;9.80
39401;DHT22;54391;50.000;7.360;2023-02-28T08:33:51;-0.90;10.10
39401;DHT22;54391;50.000;7.360;2023-02-28T08:36:21;-0.40;10.50
39401;DHT22;54391;50.000;7.360;2023-02-28T08:38:48;-0.60;9.30
39401;DHT22;54391;50.000;7.360;2023-02-28T08:41:15;-0.50;9.10
39401;DHT22;54391;50.000;7.360;2023-02-28T08:43:42;-0.60;8.00
39401;DHT22;54391;50.000;7.360;2023-02-28T08:46:10;-0.50;9.30
39401;DHT22;54391;50.000;7.360;2023-02-28T08:48:39;-0.60;7.80
39401;DHT22;54391;50.000;7.360;2023-02-28T08:51:07;-0.50;7.50
39401;DHT22;54391;50.000;7.360;2023-02-28T08:53:35;-0.70;7.30
39401;DHT22;54391;50.000;7.360;2023-02-28T08:56:03;-0.60;6.00
39401;DHT22;54391;50.000;7.360;2023-02-28T08:58:31;-0.50;4.40
39401;DHT22;54391;50.000;7.360;2023-02-28T09:00:58;-0.70;2.50
39401;DHT22;54391;50.000;7.360;2023-02-28T09:03:25;-0.60;2.70
39401;DHT22;54391;50.000;7.360;2023-02-28T09:05:58;-0.50;3.10
39401;DHT22;54391;50.000;7.360;2023-02-28T09:08:26;-0.10;1.20
39401;DHT22;54391;50.000;7.360;2023-02-28T09:10:53;0.20;1.30
39401;DHT22;54391;50.000;7.360;2023-02-28T09:13:22;-0.10;1.00
39401;DHT22;54391;50.000;7.360;2023-02-28T09:15:49;0.10;1.30
39401;DHT22;54391;50.000;7.360;2023-02-28T09:18:16;0.30;1.00
39401;DHT22;54391;50.000;7.360;2023-02-28T09:20:44;0.30;1.00
39401;DHT22;54391;50.000;7.360;2023-02-28T09:23:12;0.60;1.00
39401;DHT22;54391;50.000;7.360;2023-02-28T09:25:44;0.70;1.00
39401;DHT22;54391;50.000;7.360;2023-02-28T09:28:11;1.30;1.00
39401;DHT22;54391;50.000;7.360;2023-02-28T09:30:39;1.40;1.00
39401;DHT22;54391;50.000;7.360;2023-02-28T09:33:06;1.70;1.00
39401;DHT22;54391;50.000;7.360;2023-02-28T09:35:33;2.10;1.00
39401;DHT22;54391;50.000;7.360;2023-02-28T09:38:03;1.80;1.00
39401;DHT22;54391;50.000;7.360;2023-02-28T09:40:31;2.00;1.00
39401;DHT22;54391;50.000;7.360;2023-02-28T09:43:02;2.30;1.00
39401;DHT22;54391;50.000;7.360;2023-02-28T09:45:30;2.70;1.00
39401;DHT22;54391;50.000;7.360;2023-02-28T09:47:58;2.90;1.00
39401;DHT22;54391;50.000;7.360;2023-02-28T09:50:29;5.40;1.00
39401;DHT22;54391;50.000;7.360;2023-02-28T09:52:58;2.50;1.00
39401;DHT22;54391;50.000;7.360;2023-02-28T09:55:28;2.20;1.00
39401;DHT22;54391;50.000;7.360;2023-02-28T09:57:57;2.60;1.00
39401;DHT22;54391;50.000;7.360;2023-02-28T10:00:27;2.50;1.00
39401;DHT22;54391;50.000;7.360;2023-02-28T10:03:04;1.90;1.00
39401;DHT22;54391;50.000;7.360;2023-02-28T10:05:34;1.50;1.00
39401;DHT22;54391;50.000;7.360;2023-02-28T10:08:06;1.50;1.00
39401;DHT22;54391;50.000;7.360;2023-02-28T10:10:35;1.30;1.00
39401;DHT22;54391;50.000;7.360;2023-02-28T10:13:06;1.30;1.00
39401;DHT22;54391;50.000;7.360;2023-02-28T10:15:38;1.40;1.00
39401;DHT22;54391;50.000;7.360;2023-02-28T10:18:08;1.90;1.00
39401;DHT22;54391;50.000;7.360;2023-02-28T10:20:37;1.90;1.00
39401;DHT22;54391;50.000;7.360;2023-02-28T10:23:09;2.00;1.00
39401;DHT22;54391;50.000;7.360;2023-02-28T10:25:38;1.50;1.00
39401;DHT22;54391;50.000;7.360;2023-02-28T10:28:10;1.80;1.00
39401;DHT22;54391;50.000;7.360;2023-02-28T10:30:38;1.60;1.00
39401;DHT22;54391;50.000;7.360;2023-02-28T10:33:05;1.20;1.00
39401;DHT22;54391;50.000;7.360;2023-02-28T10:35:35;1.60;1.00
39401;DHT22;54391;50.000;7.360;2023-02-28T10:38:02;2.50;1.00
39401;DHT22;54391;50.000;7.360;2023-02-28T10:40:38;3.20;1.00
39401;DHT22;54391;50.000;7.360;2023-02-28T10:43:05;3.60;1.00
39401;DHT22;54391;50.000;7.360;2023-02-28T10:45:34;2.50;1.00
39401;DHT22;54391;50.000;7.360;2023-02-28T10:48:04;1.40;1.00
39401;DHT22;54391;50.000;7.360;2023-02-28T10:50:33;1.00;1.00
39401;DHT22;54391;50.000;7.360;2023-02-28T10:53:07;2.30;1.00
39401;DHT22;54391;50.000;7.360;2023-02-28T10:55:37;2.40;1.00
39401;DHT22;54391;50.000;7.360;2023-02-28T10:58:08;3.30;1.00
39401;DHT22;54391;50.000;7.360;2023-02-28T11:00:46;3.90;1.00
39401;DHT22;54391;50.000;7.360;2023-02-28T11:03:22;3.30;1.00
39401;DHT22;54391;50.000;7.360;2023-02-28T11:05:50;3.80;1.00
39401;DHT22;54391;50.000;7.360;2023-02-28T11:08:17;4.70;1.00
39401;DHT22;54391;50.000;7.360;2023-02-28T11:10:45;6.00;1.00
39401;DHT22;54391;50.000;7.360;2023-02-28T11:13:16;6.80;1.00
39401;DHT22;54391;50.000;7.360;2023-02-28T11:15:45;5.90;1.00
39401;DHT22;54391;50.000;7.360;2023-02-28T11:18:21;4.90;1.00
39401;DHT22;54391;50.000;7.360;2023-02-28T11:20:49;4.80;1.00
39401;DHT22;54391;50.000;7.360;2023-02-28T11:23:16;4.60;1.00
39401;DHT22;54391;50.000;7.360;2023-02-28T11:25:46;4.50;1.00
39401;DHT22;54391;50.000;7.360;2023-02-28T11:28:23;3.60;1.00
39401;DHT22;54391;50.000;7.360;2023-02-28T11:30:59;3.80;1.00
39401;DHT22;54391;50.000;7.360;2023-02-28T11:33:29;3.90;1.00
39401;DHT22;54391;50.000;7.360;2023-02-28T11:35:57;4.00;1.00
39401;DHT22;54391;50.000;7.360;2023-02-28T11:38:26;4.20;1.00
39401;DHT22;54391;50.000;7.360;2023-02-28T11:41:03;4.10;1.00
39401;DHT22;54391;50.000;7.360;2023-02-28T11:43:35;3.30;1.00
39401;DHT22;54391;50.000;7.360;2023-02-28T11:46:07;4.10;1.00
39401;DHT22;54391;50.000;7.360;2023-02-28T11:48:42;4.60;1.00
39401;DHT22;54391;50.000;7.360;2023-02-28T11:51:14;4.70;1.00
39401;DHT22;54391;50.000;7.360;2023-02-28T11:56:25;5.20;1.00
39401;DHT22;54391;50.000;7.360;2023-02-28T11:58:55;4.30;1.00
39401;DHT22;54391;50.000;7.360;2023-02-28T12:01:30;4.80;1.00
39401;DHT22;54391;50.000;7.360;2023-02-28T12:04:08;4.80;1.00
39401;DHT22;54391;50.000;7.360;2023-02-28T12:06:38;5.40;1.00
39401;DHT22;54391;50.000;7.360;2023-02-28T12:11:51;5.10;1.00
39401;DHT22;54391;50.000;7.360;2023-02-28T12:14:30;5.20;1.00
39401;DHT22;54391;50.000;7.360;2023-02-28T12:17:04;4.20;1.00
39401;DHT22;54391;50.000;7.360;2023-02-28T12:19:37;4.00;1.00
39401;DHT22;54391;50.000;7.360;2023-02-28T12:22:10;3.60;1.00
39401;DHT22;54391;50.000;7.360;2023-02-28T12:24:39;3.60;1.00
39401;DHT22;54391;50.000;7.360;2023-02-28T12:27:14;3.70;1.00
39401;DHT22;54391;50.000;7.360;2023-02-28T12:29:45;3.30;1.00
39401;DHT22;54391;50.000;7.360;2023-02-28T12:32:15;3.80;1.00
39401;DHT22;54391;50.000;7.360;2023-02-28T12:34:46;3.40;1.00
39401;DHT22;54391;50.000;7.360;2023-02-28T12:37:16;3.40;1.00
39401;DHT22;54391;50.000;7.360;2023-02-28T12:39:45;3.50;1.00
39401;DHT22;54391;50.000;7.360;2023-02-28T12:42:13;3.80;1.00
39401;DHT22;54391;50.000;7.360;2023-02-28T12:44:44;3.60;1.00
39401;DHT22;54391;50.000;7.360;2023-02-28T12:47:13;3.00;1.00
39401;DHT22;54391;50.000;7.360;2023-02-28T12:49:42;3.60;1.00
39401;DHT22;54391;50.000;7.360;2023-02-28T12:52:13;4.50;1.00
39401;DHT22;54391;50.000;7.360;2023-02-28T12:54:44;4.70;1.00
39401;DHT22;54391;50.000;7.360;2023-02-28T12:57:14;5.00;1.00
39401;DHT22;54391;50.000;7.360;2023-02-28T12:59:45;4.70;1.00
39401;DHT22;54391;50.000;7.360;2023-02-28T13:02:24;4.60;1.00
39401;DHT22;54391;50.000;7.360;2023-02-28T13:07:54;4.90;1.00
39401;DHT22;54391;50.000;7.360;2023-02-28T13:10:24;4.60;1.00
39401;DHT22;54391;50.000;7.360;2023-02-28T13:13:03;4.70;1.00
39401;DHT22;54391;50.000;7.360;2023-02-28T13:15:31;4.60;1.00
39401;DHT22;54391;50.000;7.360;2023-02-28T13:18:03;3.80;1.00
39401;DHT22;54391;50.000;7.360;2023-02-28T13:20:32;3.70;1.00
39401;DHT22;54391;50.000;7.360;2023-02-28T13:23:01;3.20;1.00
39401;DHT22;54391;50.000;7.360;2023-02-28T13:31:19;3.90;1.00
39401;DHT22;54391;50.000;7.360;2023-02-28T13:34:11;3.50;1.00
39401;DHT22;54391;50.000;7.360;2023-02-28T13:36:39;3.50;1.00
39401;DHT22;54391;50.000;7.360;2023-02-28T13:41:49;3.70;1.00
39401;DHT22;54391;50.000;7.360;2023-02-28T13:44:17;3.80;1.00
39401;DHT22;54391;50.000;7.360;2023-02-28T13:49:30;3.20;1.00
39401;DHT22;54391;50.000;7.360;2023-02-28T13:52:02;3.20;1.00
39401;DHT22;54391;50.000;7.360;2023-02-28T13:54:41;3.40;1.00
39401;DHT22;54391;50.000;7.360;2023-02-28T13:57:14;3.40;1.00
39401;DHT22;54391;50.000;7.360;2023-02-28T13:59:46;3.20;1.00
39401;DHT22;54391;50.000;7.360;2023-02-28T14:02:34;2.90;1.00
39401;DHT22;54391;50.000;7.360;2023-02-28T14:05:05;3.20;1.00
39401;DHT22;54391;50.000;7.360;2023-02-28T14:07:33;3.30;1.00
39401;DHT22;54391;50.000;7.360;2023-02-28T14:10:03;3.10;1.00
39401;DHT22;54391;50.000;7.360;2023-02-28T14:12:54;2.90;1.00
39401;DHT22;54391;50.000;7.360;2023-02-28T14:15:35;3.00;1.00
39401;DHT22;54391;50.000;7.360;2023-02-28T14:18:03;3.10;1.00
39401;DHT22;54391;50.000;7.360;2023-02-28T14:20:32;3.30;1.00
39401;DHT22;54391;50.000;7.360;2023-02-28T14:23:02;3.70;1.00
39401;DHT22;54391;50.000;7.360;2023-02-28T14:25:32;3.40;1.00
39401;DHT22;54391;50.000;7.360;2023-02-28T14:28:06;3.30;1.00
39401;DHT22;54391;50.000;7.360;2023-02-28T14:33:42;3.70;1.00
39401;DHT22;54391;50.000;7.360;2023-02-28T14:36:12;4.00;1.00
39401;DHT22;54391;50.000;7.360;2023-02-28T14:38:42;3.90;1.00
39401;DHT22;54391;50.000;7.360;2023-02-28T14:41:14;3.70;1.00
39401;DHT22;54391;50.000;7.360;2023-02-28T14:43:49;3.70;1.00
39401;DHT22;54391;50.000;7.360;2023-02-28T14:46:16;3.50;1.00
39401;DHT22;54391;50.000;7.360;2023-02-28T14:48:44;3.50;1.00
39401;DHT22;54391;50.000;7.360;2023-02-28T14:51:12;3.60;1.00
39401;DHT22;54391;50.000;7.360;2023-02-28T14:53:44;3.40;1.00
39401;DHT22;54391;50.000;7.360;2023-02-28T14:56:18;3.60;1.00
39401;DHT22;54391;50.000;7.360;2023-02-28T14:58:52;3.30;1.00
39401;DHT22;54391;50.000;7.360;2023-02-28T15:01:19;3.30;1.00
39401;DHT22;54391;50.000;7.360;2023-02-28T15:03:47;3.30;1.00
39401;DHT22;54391;50.000;7.360;2023-02-28T15:06:15;3.30;1.00
39401;DHT22;54391;50.000;7.360;2023-02-28T15:08:42;3.00;1.00
39401;DHT22;54391;50.000;7.360;2023-02-28T15:11:12;3.10;1.00
39401;DHT22;54391;50.000;7.360;2023-02-28T15:13:41;2.90;1.00
39401;DHT22;54391;50.000;7.360;2023-02-28T15:16:11;3.00;1.00
39401;DHT22;54391;50.000;7.360;2023-02-28T15:18:43;2.70;1.00
39401;DHT22;54391;50.000;7.360;2023-02-28T15:21:11;2.80;1.00
39401;DHT22;54391;50.000;7.360;2023-02-28T15:23:40;3.10;1.00
39401;DHT22;54391;50.000;7.360;2023-02-28T15:26:09;3.30;1.00
39401;DHT22;54391;50.000;7.360;2023-02-28T15:28:37;3.50;1.00
39401;DHT22;54391;50.000;7.360;2023-02-28T15:31:16;3.60;1.00
39401;DHT22;54391;50.000;7.360;2023-02-28T15:33:52;3.40;1.00
39401;DHT22;54391;50.000;7.360;2023-02-28T15:36:20;3.30;1.00
39401;DHT22;54391;50.000;7.360;2023-02-28T15:38:50;3.00;1.00
39401;DHT22;54391;50.000;7.360;2023-02-28T15:41:21;2.70;1.00
39401;DHT22;54391;50.000;7.360;2023-02-28T15:43:48;2.60;1.00
39401;DHT22;54391;50.000;7.360;2023-02-28T15:46:15;2.50;1.00
39401;DHT22;54391;50.000;7.360;2023-02-28T15:48:43;2.60;1.00
39401;DHT22;54391;50.000;7.360;2023-02-28T15:51:14;2.50;1.00
39401;DHT22;54391;50.000;7.360;2023-02-28T15:53:45;2.40;1.00
39401;DHT22;54391;50.000;7.360;2023-02-28T15:56:19;2.50;1.00
39401;DHT22;54391;50.000;7.360;2023-02-28T15:58:47;2.70;1.00
39401;DHT22;54391;50.000;7.360;2023-02-28T16:01:19;2.50;1.00
39401;DHT22;54391;50.000;7.360;2023-02-28T16:03:48;2.70;1.00
39401;DHT22;54391;50.000;7.360;2023-02-28T16:09:06;2.40;1.00
39401;DHT22;54391;50.000;7.360;2023-02-28T16:11:36;2.30;1.00
39401;DHT22;54391;50.000;7.360;2023-02-28T16:14:04;2.30;1.00
39401;DHT22;54391;50.000;7.360;2023-02-28T16:16:31;2.40;1.00
39401;DHT22;54391;50.000;7.360;2023-02-28T16:18:59;2.40;1.00
39401;DHT22;54391;50.000;7.360;2023-02-28T16:21:27;2.30;1.00
39401;DHT22;54391;50.000;7.360;2023-02-28T16:23:54;2.30;1.00
39401;DHT22;54391;50.000;7.360;2023-02-28T16:26:23;2.30;1.00
39401;DHT22;54391;50.000;7.360;2023-02-28T16:28:50;2.10;1.00
39401;DHT22;54391;50.000;7.360;2023-02-28T16:31:18;2.00;1.00